Time;durP1;ratioP1;P1;durP2;ratioP2;P2;SDS_P1;SDS_P2;PMS_P1;PMS_P2;Temp;Humidity;BMP_temperature;BMP_pressure;BME280_temperature;BME280_humidity;BME280_pressure;Samples;Min_cycle;Max_cycle;Signal;HPM_P1;HPM_P2
2021/09/07 00:01:02;;;;;;;;;;;;;;;21.34;60.75;102157.72;5015035;28;1598;-68
2021/09/07 00:03:27;;;;;;;;;;;;;;;21.34;60.97;102152.28;5013005;28;1113;-68
2021/09/07 00:05:52;;;;;;;;;;;;;;;21.33;60.93;102156.84;5014808;28;895;-68
2021/09/07 00:08:17;;;;;;;;;;;;;;;21.33;60.71;102150.56;5014865;28;1898;-68
2021/09/07 00:10:42;;;;;;;;;;;;;;;21.30;61.17;102146.31;5015033;28;1911;-68
2021/09/07 00:13:07;;;;;;;;;;;;;;;21.30;60.78;102146.31;5014818;28;1270;-68
2021/09/07 00:15:32;;;;;;;;;;;;;;;21.29;61.08;102151.88;5014683;28;1037;-69
2021/09/07 00:17:57;;;;;;;;;;;;;;;21.28;61.12;102153.72;5013393;28;1778;-70
2021/09/07 00:20:23;;;;;;;;;;;;;;;21.28;60.75;102145.59;5014730;28;859;-69
2021/09/07 00:22:48;;;;;;;;;;;;;;;21.25;61.09;102148.56;5014915;28;831;-69
2021/09/07 00:25:13;;;;;;;;;;;;;;;21.25;60.88;102136.88;5014799;28;1072;-69
2021/09/07 00:27:38;;;;;;;;;;;;;;;21.24;61.17;102135.16;5014959;28;911;-70
2021/09/07 00:30:03;;;;;;;;;;;;;;;21.23;61.63;102130.72;5014667;28;878;-70
2021/09/07 00:32:28;;;;;;;;;;;;;;;21.23;61.73;102128.88;5014540;28;1902;-70
2021/09/07 00:34:53;;;;;;;;;;;;;;;21.23;61.12;102125.28;5014879;28;1013;-69
2021/09/07 00:37:18;;;;;;;;;;;;;;;21.21;61.37;102117.28;5014672;28;934;-69
2021/09/07 00:39:44;;;;;;;;;;;;;;;21.20;61.46;102112.88;5014522;28;1875;-68
2021/09/07 00:42:09;;;;;;;;;;;;;;;21.20;61.87;102117.44;5013507;28;1290;-68
2021/09/07 00:44:34;;;;;;;;;;;;;;;21.20;61.04;102110.16;5014571;28;899;-68
2021/09/07 00:46:59;;;;;;;;;;;;;;;21.19;61.77;102121.09;5014256;28;1859;-69
2021/09/07 00:49:24;;;;;;;;;;;;;;;21.17;61.29;102102.25;5014362;28;1870;-69
2021/09/07 00:51:49;;;;;;;;;;;;;;;21.17;61.39;102112.25;5014617;28;1933;-69
2021/09/07 00:54:14;;;;;;;;;;;;;;;21.15;61.26;102107.81;5014556;28;859;-69
2021/09/07 00:56:39;;;;;;;;;;;;;;;21.15;61.83;102109.66;5014443;28;848;-69
2021/09/07 00:59:04;;;;;;;;;;;;;;;21.16;61.57;102108.69;5009890;28;1864;-70
2021/09/07 01:01:29;;;;;;;;;;;;;;;21.17;61.41;102115.81;4995167;28;1630;-70
2021/09/07 01:03:54;;;;;;;;;;;;;;;21.15;61.51;102109.66;4993880;28;993;-70
2021/09/07 01:06:19;;;;;;;;;;;;;;;21.16;61.51;102116.81;4994687;28;835;-70
2021/09/07 01:08:44;;;;;;;;;;;;;;;21.15;61.78;102109.66;4994935;28;1006;-70
2021/09/07 01:11:10;;;;;;;;;;;;;;;21.12;61.61;102107.25;4994900;28;1965;-70
2021/09/07 01:13:35;;;;;;;;;;;;;;;21.12;61.48;102104.56;4995094;28;800;-70
2021/09/07 01:16:00;;;;;;;;;;;;;;;21.09;62.01;102108.38;4998309;28;1002;-70
2021/09/07 01:18:25;;;;;;;;;;;;;;;21.10;61.56;102110.09;5007892;28;1886;-68
2021/09/07 01:20:50;;;;;;;;;;;;;;;21.11;62.28;102103.69;5017966;28;859;-70
2021/09/07 01:23:15;;;;;;;;;;;;;;;21.10;61.81;102101.13;5016886;28;918;-70
2021/09/07 01:25:40;;;;;;;;;;;;;;;21.10;62.03;102107.41;5017892;28;1932;-70
2021/09/07 01:28:06;;;;;;;;;;;;;;;21.10;61.69;102106.53;5018374;28;939;-70
2021/09/07 01:30:32;;;;;;;;;;;;;;;21.09;61.69;102111.09;5017884;28;1894;-70
2021/09/07 01:32:57;;;;;;;;;;;;;;;21.08;61.43;102109.38;5018209;28;871;-69
2021/09/07 01:35:22;;;;;;;;;;;;;;;21.08;62.02;102108.53;5017504;28;843;-70
2021/09/07 01:37:47;;;;;;;;;;;;;;;21.07;62.02;102109.50;5017625;28;2061;-69
2021/09/07 01:40:12;;;;;;;;;;;;;;;21.05;62.11;102106.94;5018092;28;878;-70
2021/09/07 01:42:37;;;;;;;;;;;;;;;21.04;61.66;102096.22;5018186;28;1064;-69
2021/09/07 01:45:02;;;;;;;;;;;;;;;21.03;61.76;102100.78;5017705;28;816;-66
2021/09/07 01:47:27;;;;;;;;;;;;;;;21.01;61.41;102100.06;5017250;28;1879;-69
2021/09/07 01:49:52;;;;;;;;;;;;;;;21.00;61.84;102098.34;5018206;28;973;-69
2021/09/07 01:52:17;;;;;;;;;;;;;;;21.01;61.36;102101.91;5017457;28;1956;-68
2021/09/07 01:54:43;;;;;;;;;;;;;;;21.01;61.56;102102.78;5017784;28;1680;-67
2021/09/07 01:57:08;;;;;;;;;;;;;;;20.99;61.84;102110.19;5017927;28;895;-68
2021/09/07 01:59:33;;;;;;;;;;;;;;;20.98;62.03;102096.78;5016948;28;2090;-69
2021/09/07 02:01:58;;;;;;;;;;;;;;;20.98;61.71;102097.63;5017170;28;2024;-68
2021/09/07 02:04:23;;;;;;;;;;;;;;;20.97;61.42;102104.03;5017341;28;1014;-68
2021/09/07 02:06:48;;;;;;;;;;;;;;;20.97;61.72;102097.75;5017272;28;962;-67
2021/09/07 02:09:13;;;;;;;;;;;;;;;20.97;61.99;102106.75;5017153;28;807;-67
2021/09/07 02:11:39;;;;;;;;;;;;;;;20.95;61.95;102108.75;5017042;28;1985;-67
2021/09/07 02:14:04;;;;;;;;;;;;;;;20.93;62.08;102110.75;5017350;28;841;-67
2021/09/07 02:16:29;;;;;;;;;;;;;;;20.93;61.94;102107.19;5017597;28;1018;-68
2021/09/07 02:18:54;;;;;;;;;;;;;;;20.92;62.01;102100.91;5016712;28;2073;-69
2021/09/07 02:21:19;;;;;;;;;;;;;;;20.92;61.95;102108.16;5016871;28;909;-68
2021/09/07 02:23:44;;;;;;;;;;;;;;;20.93;61.43;102104.47;5017211;28;911;-67
2021/09/07 02:26:09;;;;;;;;;;;;;;;20.91;61.71;102112.75;5015102;28;2768;-68
2021/09/07 02:28:34;;;;;;;;;;;;;;;20.89;61.47;102103.88;5017182;28;792;-68
2021/09/07 02:30:59;;;;;;;;;;;;;;;20.88;61.57;102107.59;5017174;28;1910;-66
2021/09/07 02:33:24;;;;;;;;;;;;;;;20.86;61.83;102106.84;5016696;28;1006;-66
2021/09/07 02:35:49;;;;;;;;;;;;;;;20.88;62.23;102106.72;5016899;28;1629;-67
2021/09/07 02:38:14;;;;;;;;;;;;;;;20.87;61.85;102105.88;5016418;28;2027;-66
2021/09/07 02:40:40;;;;;;;;;;;;;;;20.86;62.12;102104.16;5016625;28;1006;-66
2021/09/07 02:43:05;;;;;;;;;;;;;;;20.83;61.69;102107.13;5016871;28;1006;-67
2021/09/07 02:45:30;;;;;;;;;;;;;;;20.83;61.30;102108.97;5016529;28;956;-67
2021/09/07 02:47:55;;;;;;;;;;;;;;;20.83;62.14;102109.84;5011913;28;1877;-66
2021/09/07 02:50:20;;;;;;;;;;;;;;;20.84;61.99;102103.41;4997272;28;839;-66
2021/09/07 02:52:45;;;;;;;;;;;;;;;20.80;61.18;102100.13;4996888;28;1979;-66
2021/09/07 02:55:10;;;;;;;;;;;;;;;20.79;61.69;102098.41;4996947;28;837;-65
2021/09/07 02:57:35;;;;;;;;;;;;;;;20.79;61.59;102102.97;5000592;28;1981;-68
2021/09/07 03:00:00;;;;;;;;;;;;;;;20.78;61.77;102110.22;5016644;28;949;-67
2021/09/07 03:02:26;;;;;;;;;;;;;;;20.77;61.75;102102.25;5016534;28;1241;-67
2021/09/07 03:04:51;;;;;;;;;;;;;;;20.76;61.88;102095.13;5016400;28;859;-67
2021/09/07 03:07:16;;;;;;;;;;;;;;;20.75;61.10;102090.69;5016160;28;921;-66
2021/09/07 03:09:41;;;;;;;;;;;;;;;20.74;61.07;102089.84;5016354;28;843;-67
2021/09/07 03:12:06;;;;;;;;;;;;;;;20.73;61.39;102093.53;5016258;28;2070;-67
2021/09/07 03:14:31;;;;;;;;;;;;;;;20.71;61.46;102089.25;5015952;28;846;-67
2021/09/07 03:16:56;;;;;;;;;;;;;;;20.72;62.09;102096.38;5016272;28;2025;-67
2021/09/07 03:19:21;;;;;;;;;;;;;;;20.72;61.19;102096.38;5016087;28;1846;-68
2021/09/07 03:21:46;;;;;;;;;;;;;;;20.71;61.57;102094.66;5015813;28;1826;-68
2021/09/07 03:24:11;;;;;;;;;;;;;;;20.69;61.76;102091.22;5016422;28;758;-67
2021/09/07 03:26:37;;;;;;;;;;;;;;;20.68;61.48;102097.63;5015848;28;1013;-67
2021/09/07 03:29:02;;;;;;;;;;;;;;;20.66;61.12;102095.06;5015916;28;895;-66
2021/09/07 03:31:27;;;;;;;;;;;;;;;20.66;61.72;102086.06;5016213;28;1898;-68
2021/09/07 03:33:53;;;;;;;;;;;;;;;20.65;61.38;102085.22;5015458;28;950;-68
2021/09/07 03:36:18;;;;;;;;;;;;;;;20.64;61.92;102082.63;5015952;28;830;-69
2021/09/07 03:38:43;;;;;;;;;;;;;;;20.64;61.86;102083.50;5014667;28;2011;-69
2021/09/07 03:41:08;;;;;;;;;;;;;;;20.63;61.91;102081.78;5015686;28;1199;-66
2021/09/07 03:43:33;;;;;;;;;;;;;;;20.61;61.53;102091.88;5016000;28;846;-66
2021/09/07 03:45:58;;;;;;;;;;;;;;;20.61;61.99;102093.75;5015564;28;1006;-66
2021/09/07 03:48:24;;;;;;;;;;;;;;;20.62;61.14;102092.75;5015743;28;1063;-69
2021/09/07 03:50:49;;;;;;;;;;;;;;;20.61;62.13;102089.19;5015463;28;1894;-69
2021/09/07 03:53:14;;;;;;;;;;;;;;;20.59;61.27;102093.03;5010766;28;1969;-69
2021/09/07 03:55:39;;;;;;;;;;;;;;;20.60;61.81;102092.06;4996282;28;848;-69
2021/09/07 03:58:05;;;;;;;;;;;;;;;20.58;61.74;102089.47;4995505;28;985;-66
2021/09/07 04:00:31;;;;;;;;;;;;;;;20.58;61.47;102092.19;4996593;28;1913;-66
2021/09/07 04:02:56;;;;;;;;;;;;;;;20.57;61.62;102093.19;5015441;28;1089;-66
2021/09/07 04:05:21;;;;;;;;;;;;;;;20.56;61.55;102096.00;5014759;28;981;-66
2021/09/07 04:07:46;;;;;;;;;;;;;;;20.57;61.76;102097.72;5014412;28;824;-66
2021/09/07 04:10:12;;;;;;;;;;;;;;;20.55;61.67;102088.88;5012994;28;863;-65
2021/09/07 04:12:37;;;;;;;;;;;;;;;20.54;61.86;102089.88;5014078;28;1978;-66
2021/09/07 04:15:02;;;;;;;;;;;;;;;20.53;61.15;102085.44;5014147;28;851;-66
2021/09/07 04:17:27;;;;;;;;;;;;;;;20.53;61.45;102091.72;5014195;28;859;-66
2021/09/07 04:19:52;;;;;;;;;;;;;;;20.52;61.27;102086.44;5014298;28;1072;-66
2021/09/07 04:22:17;;;;;;;;;;;;;;;20.51;61.87;102090.13;5014070;28;895;-66
2021/09/07 04:24:42;;;;;;;;;;;;;;;20.51;61.22;102093.69;5014297;28;834;-67
2021/09/07 04:27:07;;;;;;;;;;;;;;;20.51;61.02;102092.84;5014235;28;847;-67
2021/09/07 04:29:32;;;;;;;;;;;;;;;20.49;61.78;102094.81;5014560;28;927;-68
2021/09/07 04:31:58;;;;;;;;;;;;;;;20.47;61.59;102094.94;5014192;28;1894;-69
2021/09/07 04:34:23;;;;;;;;;;;;;;;20.48;61.50;102093.09;5013709;28;2063;-67
2021/09/07 04:36:48;;;;;;;;;;;;;;;20.45;61.77;102092.38;5014744;28;1937;-66
2021/09/07 04:39:13;;;;;;;;;;;;;;;20.47;61.36;102089.53;5014199;28;1655;-67
2021/09/07 04:41:38;;;;;;;;;;;;;;;20.45;61.00;102088.81;5014029;28;1285;-67
2021/09/07 04:44:03;;;;;;;;;;;;;;;20.43;61.44;102088.94;5014563;28;1006;-69
2021/09/07 04:46:28;;;;;;;;;;;;;;;20.42;61.35;102092.63;5014997;28;1103;-68
2021/09/07 04:48:56;;;;;;;;;;;;;;;20.41;61.72;102085.53;5015615;28;847;-68
2021/09/07 04:51:21;;;;;;;;;;;;;;;20.39;62.19;102083.94;5018880;28;1898;-69
2021/09/07 04:53:46;;;;;;;;;;;;;;;20.41;61.94;102098.22;5018211;28;1990;-69
2021/09/07 04:56:11;;;;;;;;;;;;;;;20.48;62.28;102098.53;5018759;28;1088;-69
2021/09/07 04:58:36;;;;;;;;;;;;;;;20.56;65.17;102096.00;5018807;28;903;-67
2021/09/07 05:01:01;;;;;;;;;;;;;;;20.38;66.83;102098.47;5018414;28;1920;-68
2021/09/07 05:03:26;;;;;;;;;;;;;;;20.28;66.60;102097.50;5018677;28;1077;-70
2021/09/07 05:05:51;;;;;;;;;;;;;;;20.24;64.53;102091.50;5018775;28;1041;-68
2021/09/07 05:08:17;;;;;;;;;;;;;;;20.25;63.62;102093.19;5018342;28;835;-69
2021/09/07 05:10:42;;;;;;;;;;;;;;;20.20;63.87;102095.47;5018158;28;1965;-69
2021/09/07 05:13:07;;;;;;;;;;;;;;;20.28;63.20;102092.94;5017958;28;1909;-69
2021/09/07 05:15:32;;;;;;;;;;;;;;;20.37;63.16;102096.75;5018614;28;974;-69
2021/09/07 05:17:57;;;;;;;;;;;;;;;20.39;62.57;102095.63;5018587;28;928;-69
2021/09/07 05:20:22;;;;;;;;;;;;;;;20.38;62.91;102098.47;5018156;28;1645;-69
2021/09/07 05:22:47;;;;;;;;;;;;;;;20.40;62.25;102093.78;5017370;28;1286;-69
2021/09/07 05:25:12;;;;;;;;;;;;;;;20.39;61.95;102094.78;5017403;28;1368;-69
2021/09/07 05:27:37;;;;;;;;;;;;;;;20.40;62.21;102097.34;5017547;28;1357;-69
2021/09/07 05:30:03;;;;;;;;;;;;;;;20.41;61.89;102104.47;5017383;28;1306;-69
2021/09/07 05:32:28;;;;;;;;;;;;;;;20.40;62.16;102102.75;5017482;28;1939;-69
2021/09/07 05:34:53;;;;;;;;;;;;;;;20.43;62.14;102105.19;5018091;28;893;-69
2021/09/07 05:37:18;;;;;;;;;;;;;;;20.43;61.57;102107.88;5018218;28;1021;-70
2021/09/07 05:39:43;;;;;;;;;;;;;;;20.44;61.92;102104.19;5018092;28;970;-69
2021/09/07 05:42:08;;;;;;;;;;;;;;;20.42;61.87;102113.47;5017649;28;946;-69
2021/09/07 05:44:33;;;;;;;;;;;;;;;20.40;62.19;102108.19;5017726;28;1996;-69
2021/09/07 05:46:59;;;;;;;;;;;;;;;20.41;61.66;102115.31;5016308;28;2082;-69
2021/09/07 05:49:24;;;;;;;;;;;;;;;20.40;61.34;102113.59;5017316;28;1150;-69
2021/09/07 05:51:49;;;;;;;;;;;;;;;20.43;61.37;102102.47;5012581;28;1898;-69
2021/09/07 05:54:15;;;;;;;;;;;;;;;20.42;61.69;102102.63;4998261;28;927;-66
2021/09/07 05:56:40;;;;;;;;;;;;;;;20.48;61.90;102109.34;4997991;28;967;-67
2021/09/07 05:59:05;;;;;;;;;;;;;;;20.47;61.87;102110.34;5012331;28;1652;-66
2021/09/07 06:01:30;;;;;;;;;;;;;;;20.49;61.51;102116.47;5015834;28;2129;-66
2021/09/07 06:03:55;;;;;;;;;;;;;;;20.44;61.87;102120.44;5017181;28;1271;-65
2021/09/07 06:06:21;;;;;;;;;;;;;;;20.44;62.28;102120.44;5017786;28;1018;-66
2021/09/07 06:08:46;;;;;;;;;;;;;;;20.42;62.63;102114.28;5017466;28;870;-66
2021/09/07 06:11:11;;;;;;;;;;;;;;;20.44;62.59;102131.28;5017077;28;1973;-66
2021/09/07 06:13:37;;;;;;;;;;;;;;;20.43;62.38;102121.44;5017011;28;1050;-66
2021/09/07 06:16:02;;;;;;;;;;;;;;;20.43;62.19;102117.88;5017589;28;882;-66
2021/09/07 06:18:27;;;;;;;;;;;;;;;20.44;62.29;102122.28;5017790;28;1574;-66
2021/09/07 06:20:52;;;;;;;;;;;;;;;20.45;61.76;102115.88;5016684;28;1925;-66
2021/09/07 06:23:17;;;;;;;;;;;;;;;20.43;61.42;102124.13;5016321;28;1573;-66
2021/09/07 06:25:42;;;;;;;;;;;;;;;20.43;61.75;102118.72;5016523;28;1085;-66
2021/09/07 06:28:07;;;;;;;;;;;;;;;20.42;61.94;102113.47;5016473;28;1116;-66
2021/09/07 06:30:32;;;;;;;;;;;;;;;20.39;61.69;102122.72;5016454;28;852;-66
2021/09/07 06:32:57;;;;;;;;;;;;;;;20.39;61.86;102121.84;5016305;28;1945;-66
2021/09/07 06:35:23;;;;;;;;;;;;;;;20.34;61.46;102114.09;5016111;28;870;-66
2021/09/07 06:37:48;;;;;;;;;;;;;;;20.35;61.87;102123.06;5016638;28;874;-66
2021/09/07 06:40:13;;;;;;;;;;;;;;;20.37;61.56;102121.97;5016324;28;1033;-66
2021/09/07 06:42:39;;;;;;;;;;;;;;;20.41;61.09;102119.88;5016136;28;1924;-66
2021/09/07 06:45:04;;;;;;;;;;;;;;;20.43;61.62;102113.31;5016368;28;1854;-66
2021/09/07 06:47:29;;;;;;;;;;;;;;;20.44;61.77;102112.31;5015804;28;1755;-66
2021/09/07 06:49:54;;;;;;;;;;;;;;;20.38;61.31;102115.56;5015650;28;2020;-66
2021/09/07 06:52:20;;;;;;;;;;;;;;;20.35;62.29;102126.63;5016718;28;1894;-66
2021/09/07 06:54:45;;;;;;;;;;;;;;;20.29;62.37;102116.31;5013919;28;1163;-65
2021/09/07 06:57:11;;;;;;;;;;;;;;;20.33;62.84;102120.47;5016113;28;1500;-66
2021/09/07 06:59:36;;;;;;;;;;;;;;;20.35;62.40;102114.94;5015435;28;1351;-66
2021/09/07 07:02:01;;;;;;;;;;;;;;;20.36;62.68;102112.13;5009135;28;1532;-65
2021/09/07 07:04:26;;;;;;;;;;;;;;;20.36;62.80;102116.66;4995399;28;1640;-66
2021/09/07 07:06:51;;;;;;;;;;;;;;;20.40;62.31;102113.59;4995784;28;1310;-66
2021/09/07 07:09:16;;;;;;;;;;;;;;;20.37;62.47;102124.69;4995651;28;1512;-66
2021/09/07 07:11:42;;;;;;;;;;;;;;;20.35;63.15;102121.22;4995715;28;1960;-65
2021/09/07 07:14:07;;;;;;;;;;;;;;;20.37;63.58;102121.97;4996578;28;1037;-65
2021/09/07 07:16:32;;;;;;;;;;;;;;;20.38;63.19;102115.56;4996186;28;1668;-65
2021/09/07 07:18:57;;;;;;;;;;;;;;;20.42;62.74;102116.19;4996362;28;791;-65
2021/09/07 07:21:22;;;;;;;;;;;;;;;20.44;62.87;102115.03;4995372;28;1784;-66
2021/09/07 07:23:47;;;;;;;;;;;;;;;20.48;63.03;102115.63;4995961;28;807;-67
2021/09/07 07:26:12;;;;;;;;;;;;;;;20.52;62.25;102113.50;4996368;28;1064;-67
2021/09/07 07:28:37;;;;;;;;;;;;;;;20.52;62.34;102122.50;4996206;28;1811;-67
2021/09/07 07:31:02;;;;;;;;;;;;;;;20.55;62.43;102121.38;4995188;28;1894;-67
2021/09/07 07:33:28;;;;;;;;;;;;;;;20.57;62.33;102119.41;5010475;28;1444;-67
2021/09/07 07:35:53;;;;;;;;;;;;;;;20.59;62.13;102121.00;4995229;28;1318;-67
2021/09/07 07:38:18;;;;;;;;;;;;;;;20.62;62.71;102122.53;4995550;28;1772;-67
2021/09/07 07:40:45;;;;;;;;;;;;;;;20.61;62.63;102126.25;4996587;28;1026;-66
2021/09/07 07:43:10;;;;;;;;;;;;;;;20.63;62.84;102129.69;5010797;28;1915;-66
2021/09/07 07:45:35;;;;;;;;;;;;;;;20.64;62.65;102125.97;4996043;28;867;-66
2021/09/07 07:48:00;;;;;;;;;;;;;;;20.66;62.17;102142.97;4995797;28;1786;-68
2021/09/07 07:50:26;;;;;;;;;;;;;;;20.67;62.00;102139.25;4996051;28;1057;-68
2021/09/07 07:52:51;;;;;;;;;;;;;;;20.66;62.21;102137.53;4995722;28;1961;-64
2021/09/07 07:55:16;;;;;;;;;;;;;;;20.66;62.50;102140.25;4996274;28;807;-65
2021/09/07 07:57:41;;;;;;;;;;;;;;;20.66;62.71;102141.09;4995726;28;2044;-65
2021/09/07 08:00:06;;;;;;;;;;;;;;;20.66;62.71;102151.09;4995266;28;2044;-66
2021/09/07 08:02:31;;;;;;;;;;;;;;;20.68;62.29;102146.41;5014399;28;1589;-66
2021/09/07 08:04:56;;;;;;;;;;;;;;;20.69;62.21;102148.13;5015057;28;891;-66
2021/09/07 08:07:21;;;;;;;;;;;;;;;20.68;62.73;102151.81;5015665;28;1065;-66
2021/09/07 08:09:46;;;;;;;;;;;;;;;20.70;62.58;102152.53;5015474;28;974;-70
2021/09/07 08:12:16;;;;;;;;;;;;;;;20.68;61.81;102144.56;5015293;28;1918;-70
2021/09/07 08:14:41;;;;;;;;;;;;;;;20.68;62.15;102149.97;5015742;28;855;-70
2021/09/07 08:17:06;;;;;;;;;;;;;;;20.71;62.68;102154.25;5015160;28;1944;-71
2021/09/07 08:19:31;;;;;;;;;;;;;;;20.72;62.52;102151.44;5014341;28;1298;-70
2021/09/07 08:21:56;;;;;;;;;;;;;;;20.75;61.97;102155.72;5013997;28;1616;-70
2021/09/07 08:24:21;;;;;;;;;;;;;;;20.77;62.00;102145.63;5016379;28;1508;-70
2021/09/07 08:26:46;;;;;;;;;;;;;;;20.78;61.82;102148.16;5014709;28;1937;-70
2021/09/07 08:29:11;;;;;;;;;;;;;;;20.79;61.91;102151.72;4999806;28;937;-70
2021/09/07 08:31:37;;;;;;;;;;;;;;;20.76;61.50;102152.88;5003301;28;2105;-70
2021/09/07 08:34:02;;;;;;;;;;;;;;;20.80;61.83;102150.75;5019466;28;1053;-70
2021/09/07 08:36:27;;;;;;;;;;;;;;;20.82;61.30;102156.88;5018390;28;1618;-70
2021/09/07 08:38:52;;;;;;;;;;;;;;;20.84;61.29;102154.91;5017406;28;1445;-70
2021/09/07 08:41:19;;;;;;;;;;;;;;;20.82;61.01;102156.88;5018381;28;1436;-70
2021/09/07 08:43:44;;;;;;;;;;;;;;;20.85;61.32;102153.06;5018743;28;780;-70
2021/09/07 08:46:09;;;;;;;;;;;;;;;20.87;60.61;102151.94;5018443;28;918;-70
2021/09/07 08:48:34;;;;;;;;;;;;;;;20.84;61.15;102163.03;5018574;28;866;-70
2021/09/07 08:50:59;;;;;;;;;;;;;;;20.92;60.85;102154.25;5018182;28;1890;-70
2021/09/07 08:53:24;;;;;;;;;;;;;;;20.98;60.70;102156.41;5018297;28;1958;-70
2021/09/07 08:55:49;;;;;;;;;;;;;;;21.02;60.63;102147.88;5018142;28;812;-70
2021/09/07 08:58:14;;;;;;;;;;;;;;;21.05;60.25;102153.03;5018278;28;1006;-70
2021/09/07 09:00:39;;;;;;;;;;;;;;;21.07;60.42;102148.31;5018162;28;1288;-70
2021/09/07 09:03:04;;;;;;;;;;;;;;;21.09;60.39;102149.06;5018161;28;918;-70
2021/09/07 09:05:30;;;;;;;;;;;;;;;21.09;60.12;102149.06;5017894;28;1069;-70
2021/09/07 09:07:55;;;;;;;;;;;;;;;21.15;60.14;102148.47;5018145;28;804;-70
2021/09/07 09:10:20;;;;;;;;;;;;;;;21.20;60.39;102147.25;5018121;28;898;-70
2021/09/07 09:12:45;;;;;;;;;;;;;;;21.24;60.24;102152.28;5018166;28;2099;-70
2021/09/07 09:15:10;;;;;;;;;;;;;;;21.28;59.99;102147.44;5018389;28;1913;-70
2021/09/07 09:17:35;;;;;;;;;;;;;;;21.30;59.80;102151.75;5018700;28;911;-70
2021/09/07 09:20:01;;;;;;;;;;;;;;;21.36;60.04;102150.31;5018276;28;1689;-70
2021/09/07 09:22:26;;;;;;;;;;;;;;;21.39;59.80;102156.31;5018031;28;845;-70
2021/09/07 09:24:51;;;;;;;;;;;;;;;21.44;59.98;102159.50;5018246;28;1026;-70
2021/09/07 09:27:16;;;;;;;;;;;;;;;21.48;59.92;102154.66;5017718;28;1954;-70
2021/09/07 09:29:41;;;;;;;;;;;;;;;21.54;59.69;102161.34;5018220;28;926;-70
2021/09/07 09:32:06;;;;;;;;;;;;;;;21.61;59.58;102155.25;5018039;28;1958;-70
2021/09/07 09:34:31;;;;;;;;;;;;;;;21.63;59.30;102158.69;5017171;28;1863;-70
2021/09/07 09:36:56;;;;;;;;;;;;;;;21.60;59.39;102153.53;5017349;28;1281;-70
2021/09/07 09:39:21;;;;;;;;;;;;;;;21.64;59.38;102156.81;5017377;28;1252;-70
2021/09/07 09:41:47;;;;;;;;;;;;;;;21.63;59.16;102153.25;5017183;28;1961;-70
2021/09/07 09:44:12;;;;;;;;;;;;;;;21.68;59.33;102158.25;5017927;28;1745;-70
2021/09/07 09:46:37;;;;;;;;;;;;;;;21.68;58.67;102156.38;5006908;28;1442;-70
2021/09/07 09:49:02;;;;;;;;;;;;;;;21.63;59.22;102155.97;5017533;28;1643;-70
2021/09/07 09:51:28;;;;;;;;;;;;;;;21.59;59.57;102154.53;5017046;28;1902;-70
2021/09/07 09:53:53;;;;;;;;;;;;;;;21.63;59.00;102153.25;5017606;28;1435;-70
2021/09/07 09:56:18;;;;;;;;;;;;;;;21.66;58.60;102149.41;5017308;28;2146;-70
2021/09/07 09:58:43;;;;;;;;;;;;;;;21.59;58.12;102143.66;5017701;28;917;-70
2021/09/07 10:01:08;;;;;;;;;;;;;;;21.57;57.35;102145.66;5017583;28;1965;-70
2021/09/07 10:03:33;;;;;;;;;;;;;;;21.65;57.24;102144.97;5017627;28;1317;-70
2021/09/07 10:05:58;;;;;;;;;;;;;;;21.64;56.94;102141.41;5016940;28;1273;-70
2021/09/07 10:08:23;;;;;;;;;;;;;;;21.59;56.90;102142.81;5016633;28;1230;-70
2021/09/07 10:10:48;;;;;;;;;;;;;;;21.59;57.15;102135.53;5017271;28;1580;-69
2021/09/07 10:13:16;;;;;;;;;;;;;;;21.62;57.30;102134.41;5017477;28;1906;-69
2021/09/07 10:15:44;;;;;;;;;;;;;;;21.59;57.29;102130.09;5016006;28;866;-70
2021/09/07 10:18:15;;;;;;;;;;;;;;;21.64;56.97;102137.84;5017399;28;835;-70
2021/09/07 10:20:40;;;;;;;;;;;;;;;21.57;56.10;102134.81;5036377;22;1919;-69
2021/09/07 10:25:49;;;;;;;;;;;;;;;21.43;55.86;102130.66;5036642;28;870;-69
2021/09/07 10:28:14;;;;;;;;;;;;;;;21.54;56.43;102126.09;5036982;28;866;-69
2021/09/07 10:30:40;;;;;;;;;;;;;;;21.64;56.26;102129.69;5046999;28;1552;-69
2021/09/07 10:33:05;;;;;;;;;;;;;;;21.77;55.75;102127.56;5036903;28;1979;-69
2021/09/07 10:35:30;;;;;;;;;;;;;;;21.81;55.84;102124.44;5036349;28;979;-69
2021/09/07 10:37:55;;;;;;;;;;;;;;;21.72;55.74;102124.41;5036195;28;1055;-69
2021/09/07 10:40:20;;;;;;;;;;;;;;;21.75;55.83;102121.41;5036338;28;926;-69
2021/09/07 10:42:45;;;;;;;;;;;;;;;21.86;55.74;102120.41;5035695;28;1130;-69
2021/09/07 10:45:10;;;;;;;;;;;;;;;21.74;55.90;102120.56;5035136;28;1614;-69
2021/09/07 10:47:35;;;;;;;;;;;;;;;21.69;56.38;102114.69;5034695;28;1472;-69
2021/09/07 10:50:00;;;;;;;;;;;;;;;21.79;56.06;102118.28;5034415;28;1523;-69
2021/09/07 10:52:25;;;;;;;;;;;;;;;21.90;55.81;102109.13;5034762;28;1961;-69
2021/09/07 10:54:50;;;;;;;;;;;;;;;21.86;55.94;102112.28;5030806;28;1485;-69
2021/09/07 10:57:15;;;;;;;;;;;;;;;21.85;56.03;102111.44;5016734;28;855;-69
2021/09/07 10:59:41;;;;;;;;;;;;;;;21.92;56.11;102100.84;5016177;28;1010;-68
2021/09/07 11:02:06;;;;;;;;;;;;;;;21.86;56.46;102107.69;5032486;28;2074;-68
2021/09/07 11:04:31;;;;;;;;;;;;;;;21.81;56.25;102110.00;5035678;28;1590;-68
2021/09/07 11:06:56;;;;;;;;;;;;;;;21.92;55.85;102104.44;5033966;28;1378;-69
2021/09/07 11:09:21;;;;;;;;;;;;;;;22.02;56.29;102110.75;5035593;28;1017;-67
2021/09/07 11:11:47;;;;;;;;;;;;;;;22.04;57.08;102103.31;5035584;28;1898;-67
2021/09/07 11:14:12;;;;;;;;;;;;;;;22.03;57.13;102103.47;5035853;28;1028;-69
2021/09/07 11:16:37;;;;;;;;;;;;;;;22.09;59.34;102097.44;5033335;28;2064;-69
2021/09/07 11:21:27;;;;;;;;;;;;;;;22.61;59.18;102084.34;5007154;22;1738;-69
2021/09/07 11:23:52;;;;;;;;;;;;;;;22.98;58.61;102087.09;4999808;28;1966;-69
2021/09/07 11:26:18;;;;;;;;;;;;;;;23.23;57.56;102080.97;4996090;28;1549;-69
2021/09/07 11:28:43;;;;;;;;;;;;;;;23.50;58.43;102077.34;4998029;28;1639;-69
2021/09/07 11:31:08;;;;;;;;;;;;;;;23.69;58.10;102082.69;4995226;28;2038;-69
2021/09/07 11:33:36;;;;;;;;;;;;;;;23.72;58.22;102082.38;4995773;28;1522;-69
2021/09/07 11:36:01;;;;;;;;;;;;;;;23.94;57.88;102086.50;4995827;28;1636;-69
2021/09/07 11:38:28;;;;;;;;;;;;;;;23.97;57.65;102088.91;4995434;28;1637;-69
2021/09/07 11:40:53;;;;;;;;;;;;;;;23.81;56.80;102078.75;4996255;28;1345;-69
2021/09/07 11:43:18;;;;;;;;;;;;;;;24.04;58.02;102089.13;4995167;28;1324;-69
2021/09/07 11:45:43;;;;;;;;;;;;;;;24.29;57.46;102082.91;4993199;28;1288;-69
2021/09/07 11:48:09;;;;;;;;;;;;;;;24.68;56.95;102085.22;4994928;28;1533;-69
2021/09/07 11:50:34;;;;;;;;;;;;;;;24.85;56.51;102081.56;4995053;28;1272;-69
2021/09/07 11:52:59;;;;;;;;;;;;;;;24.95;56.89;102085.03;4992696;28;1949;-69
2021/09/07 11:55:24;;;;;;;;;;;;;;;24.91;56.90;102084.47;4998913;28;1424;-69
2021/09/07 11:57:49;;;;;;;;;;;;;;;24.98;57.08;102084.72;4985470;28;1633;-69
2021/09/07 12:00:14;;;;;;;;;;;;;;;25.02;56.81;102077.06;4994088;28;1241;-69
2021/09/07 12:02:40;;;;;;;;;;;;;;;25.17;56.46;102075.41;4994690;28;1431;-69
2021/09/07 12:05:05;;;;;;;;;;;;;;;25.15;56.66;102072.00;4994719;28;1291;-68
2021/09/07 12:07:31;;;;;;;;;;;;;;;25.14;56.28;102082.06;4994719;28;1482;-68
2021/09/07 12:09:56;;;;;;;;;;;;;;;25.16;56.75;102068.25;4994705;28;1482;-68
2021/09/07 12:12:21;;;;;;;;;;;;;;;25.12;56.65;102072.31;4994816;28;1955;-69
2021/09/07 12:14:46;;;;;;;;;;;;;;;24.83;57.64;102069.94;4994482;28;1419;-68
2021/09/07 12:17:12;;;;;;;;;;;;;;;24.61;58.40;102075.97;4994412;28;1249;-68
2021/09/07 12:19:37;;;;;;;;;;;;;;;24.41;58.20;102069.88;4994392;28;1288;-69
2021/09/07 12:22:02;;;;;;;;;;;;;;;24.32;58.57;102063.53;4993407;28;1347;-68
2021/09/07 12:24:27;;;;;;;;;;;;;;;24.27;58.53;102063.13;4994551;28;1230;-68
2021/09/07 12:26:52;;;;;;;;;;;;;;;24.27;58.36;102065.00;4994399;28;1272;-69
2021/09/07 12:29:18;;;;;;;;;;;;;;;24.06;58.59;102057.16;4994630;28;1077;-69
2021/09/07 12:31:43;;;;;;;;;;;;;;;24.03;58.76;102060.19;4994098;28;1902;-68
2021/09/07 12:34:08;;;;;;;;;;;;;;;23.98;59.39;102054.38;4990637;28;1363;-69
2021/09/07 12:36:33;;;;;;;;;;;;;;;23.84;57.65;102053.03;4991316;28;1340;-69
2021/09/07 12:38:58;;;;;;;;;;;;;;;23.69;56.52;102050.03;4993473;28;1419;-69
2021/09/07 12:41:23;;;;;;;;;;;;;;;23.45;57.75;102052.47;4993604;28;1327;-69
2021/09/07 12:43:49;;;;;;;;;;;;;;;23.23;57.61;102053.78;4994495;28;1332;-69